Terminal Aerodrome Forecast
Issued by NWS Charleston, WV

Current Version | Previous Version | Graphics & Text | Print | Product List | Glossary On
Versions: 1 2 3 4 5 6 7 8 9 10 11 12 13 14 15 16 17 18 19 20 21 22 23 24 25 26
000
FTUS41 KRLX 161742
TAFPKB
TAF
KPKB 161742Z 1618/1718 31008KT 6SM -RA BKN035 OVC050
     FM162300 34007KT P6SM SCT026
     FM170500 03003KT P6SM FEW035
     FM171300 02003KT P6SM SCT250=

USA.gov is the U.S. government's official web portal to all federal, state and local government web resources and services.